sensor_id;sensor_type;location;lat;lon;timestamp;temperature;humidity
10095;DHT22;5086;50.830;7.102;2023-07-13T00:00:19;18.00;99.90
10095;DHT22;5086;50.830;7.102;2023-07-13T00:02:49;17.90;99.90
10095;DHT22;5086;50.830;7.102;2023-07-13T00:05:19;17.80;99.90
10095;DHT22;5086;50.830;7.102;2023-07-13T00:07:46;17.80;99.90
10095;DHT22;5086;50.830;7.102;2023-07-13T00:10:14;17.60;99.90
10095;DHT22;5086;50.830;7.102;2023-07-13T00:12:41;17.50;99.90
10095;DHT22;5086;50.830;7.102;2023-07-13T00:15:12;17.50;99.90
10095;DHT22;5086;50.830;7.102;2023-07-13T00:17:39;17.40;99.90
10095;DHT22;5086;50.830;7.102;2023-07-13T00:20:10;17.30;99.90
10095;DHT22;5086;50.830;7.102;2023-07-13T00:22:37;17.30;99.90
10095;DHT22;5086;50.830;7.102;2023-07-13T00:25:05;17.30;99.90
10095;DHT22;5086;50.830;7.102;2023-07-13T00:27:32;17.30;99.90
10095;DHT22;5086;50.830;7.102;2023-07-13T00:29:59;17.20;99.90
10095;DHT22;5086;50.830;7.102;2023-07-13T00:32:27;17.20;99.90
10095;DHT22;5086;50.830;7.102;2023-07-13T00:34:54;17.20;99.90
10095;DHT22;5086;50.830;7.102;2023-07-13T00:37:24;17.20;99.90
10095;DHT22;5086;50.830;7.102;2023-07-13T00:39:51;17.20;99.90
10095;DHT22;5086;50.830;7.102;2023-07-13T00:42:18;17.20;99.90
10095;DHT22;5086;50.830;7.102;2023-07-13T00:45:00;17.20;99.90
10095;DHT22;5086;50.830;7.102;2023-07-13T00:47:27;17.20;99.90
10095;DHT22;5086;50.830;7.102;2023-07-13T00:49:54;17.30;99.90
10095;DHT22;5086;50.830;7.102;2023-07-13T00:52:23;17.30;99.90
10095;DHT22;5086;50.830;7.102;2023-07-13T00:54:50;17.30;99.90
10095;DHT22;5086;50.830;7.102;2023-07-13T00:57:19;17.30;99.90
10095;DHT22;5086;50.830;7.102;2023-07-13T00:59:50;17.30;99.90
10095;DHT22;5086;50.830;7.102;2023-07-13T01:02:18;17.20;99.90
10095;DHT22;5086;50.830;7.102;2023-07-13T01:04:47;17.30;99.90
10095;DHT22;5086;50.830;7.102;2023-07-13T01:07:14;17.30;99.90
10095;DHT22;5086;50.830;7.102;2023-07-13T01:09:42;17.20;99.90
10095;DHT22;5086;50.830;7.102;2023-07-13T01:12:10;17.10;99.90
10095;DHT22;5086;50.830;7.102;2023-07-13T01:14:39;17.00;99.90
10095;DHT22;5086;50.830;7.102;2023-07-13T01:17:08;17.00;99.90
10095;DHT22;5086;50.830;7.102;2023-07-13T01:19:38;16.90;99.90
10095;DHT22;5086;50.830;7.102;2023-07-13T01:22:08;16.90;99.90
10095;DHT22;5086;50.830;7.102;2023-07-13T01:24:37;16.70;99.90
10095;DHT22;5086;50.830;7.102;2023-07-13T01:27:06;16.60;99.90
10095;DHT22;5086;50.830;7.102;2023-07-13T01:29:36;16.40;99.90
10095;DHT22;5086;50.830;7.102;2023-07-13T01:32:08;16.60;99.90
10095;DHT22;5086;50.830;7.102;2023-07-13T01:34:35;16.50;99.90
10095;DHT22;5086;50.830;7.102;2023-07-13T01:37:06;16.30;99.90
10095;DHT22;5086;50.830;7.102;2023-07-13T01:39:33;16.40;99.90
10095;DHT22;5086;50.830;7.102;2023-07-13T01:41:59;16.40;99.90
10095;DHT22;5086;50.830;7.102;2023-07-13T01:44:26;16.30;99.90
10095;DHT22;5086;50.830;7.102;2023-07-13T01:46:53;16.30;99.90
10095;DHT22;5086;50.830;7.102;2023-07-13T01:49:20;16.30;99.90
10095;DHT22;5086;50.830;7.102;2023-07-13T01:51:47;16.30;99.90
10095;DHT22;5086;50.830;7.102;2023-07-13T01:54:16;16.30;99.90
10095;DHT22;5086;50.830;7.102;2023-07-13T01:56:43;16.30;99.90
10095;DHT22;5086;50.830;7.102;2023-07-13T01:59:10;16.30;99.90
10095;DHT22;5086;50.830;7.102;2023-07-13T02:01:36;16.20;99.90
10095;DHT22;5086;50.830;7.102;2023-07-13T02:04:03;16.20;99.90
10095;DHT22;5086;50.830;7.102;2023-07-13T02:06:30;16.30;99.90
10095;DHT22;5086;50.830;7.102;2023-07-13T02:08:58;16.10;99.90
10095;DHT22;5086;50.830;7.102;2023-07-13T02:11:28;16.20;99.90
10095;DHT22;5086;50.830;7.102;2023-07-13T02:13:58;16.20;99.90
10095;DHT22;5086;50.830;7.102;2023-07-13T02:16:25;16.20;99.90
10095;DHT22;5086;50.830;7.102;2023-07-13T02:18:52;16.10;99.90
10095;DHT22;5086;50.830;7.102;2023-07-13T02:21:21;16.20;99.90
10095;DHT22;5086;50.830;7.102;2023-07-13T02:23:49;16.00;99.90
10095;DHT22;5086;50.830;7.102;2023-07-13T02:26:16;16.10;99.90
10095;DHT22;5086;50.830;7.102;2023-07-13T02:28:44;16.10;99.90
10095;DHT22;5086;50.830;7.102;2023-07-13T02:31:13;16.00;99.90
10095;DHT22;5086;50.830;7.102;2023-07-13T02:33:41;16.00;99.90
10095;DHT22;5086;50.830;7.102;2023-07-13T02:36:08;15.90;99.90
10095;DHT22;5086;50.830;7.102;2023-07-13T02:38:36;16.10;99.90
10095;DHT22;5086;50.830;7.102;2023-07-13T02:41:03;16.20;99.90
10095;DHT22;5086;50.830;7.102;2023-07-13T02:43:30;16.20;99.90
10095;DHT22;5086;50.830;7.102;2023-07-13T02:46:00;16.20;99.90
10095;DHT22;5086;50.830;7.102;2023-07-13T02:48:32;16.20;99.90
10095;DHT22;5086;50.830;7.102;2023-07-13T02:50:59;16.30;99.90
10095;DHT22;5086;50.830;7.102;2023-07-13T02:53:26;16.30;99.90
10095;DHT22;5086;50.830;7.102;2023-07-13T02:55:53;16.30;99.90
10095;DHT22;5086;50.830;7.102;2023-07-13T02:58:20;16.20;99.90
10095;DHT22;5086;50.830;7.102;2023-07-13T03:00:47;16.20;99.90
10095;DHT22;5086;50.830;7.102;2023-07-13T03:03:17;16.10;99.90
10095;DHT22;5086;50.830;7.102;2023-07-13T03:05:45;16.10;99.90
10095;DHT22;5086;50.830;7.102;2023-07-13T03:08:16;16.10;99.90
10095;DHT22;5086;50.830;7.102;2023-07-13T03:10:43;16.10;99.90
10095;DHT22;5086;50.830;7.102;2023-07-13T03:13:10;16.10;99.90
10095;DHT22;5086;50.830;7.102;2023-07-13T03:15:37;16.10;99.90
10095;DHT22;5086;50.830;7.102;2023-07-13T03:18:04;16.10;99.90
10095;DHT22;5086;50.830;7.102;2023-07-13T03:20:33;16.20;99.90
10095;DHT22;5086;50.830;7.102;2023-07-13T03:23:00;16.10;99.90
10095;DHT22;5086;50.830;7.102;2023-07-13T03:25:28;16.10;99.90
10095;DHT22;5086;50.830;7.102;2023-07-13T03:27:55;16.10;99.90
10095;DHT22;5086;50.830;7.102;2023-07-13T03:30:22;16.10;99.90
10095;DHT22;5086;50.830;7.102;2023-07-13T03:32:49;16.10;99.90
10095;DHT22;5086;50.830;7.102;2023-07-13T03:35:16;16.20;99.90
10095;DHT22;5086;50.830;7.102;2023-07-13T03:37:44;16.20;99.90
10095;DHT22;5086;50.830;7.102;2023-07-13T03:40:12;16.30;99.90
10095;DHT22;5086;50.830;7.102;2023-07-13T03:42:39;16.30;99.90
10095;DHT22;5086;50.830;7.102;2023-07-13T03:45:07;16.30;99.90
10095;DHT22;5086;50.830;7.102;2023-07-13T03:47:34;16.40;99.90
10095;DHT22;5086;50.830;7.102;2023-07-13T03:50:01;16.40;99.90
10095;DHT22;5086;50.830;7.102;2023-07-13T03:52:29;16.50;99.90
10095;DHT22;5086;50.830;7.102;2023-07-13T03:54:57;16.50;99.90
10095;DHT22;5086;50.830;7.102;2023-07-13T03:57:24;16.40;99.90
10095;DHT22;5086;50.830;7.102;2023-07-13T03:59:51;16.50;99.90
10095;DHT22;5086;50.830;7.102;2023-07-13T04:02:18;16.40;99.90
10095;DHT22;5086;50.830;7.102;2023-07-13T04:04:45;16.50;99.90
10095;DHT22;5086;50.830;7.102;2023-07-13T04:07:12;16.50;99.90
10095;DHT22;5086;50.830;7.102;2023-07-13T04:09:39;16.60;99.90
10095;DHT22;5086;50.830;7.102;2023-07-13T04:12:09;16.60;99.90
10095;DHT22;5086;50.830;7.102;2023-07-13T04:14:35;16.60;99.90
10095;DHT22;5086;50.830;7.102;2023-07-13T04:17:03;16.60;99.90
10095;DHT22;5086;50.830;7.102;2023-07-13T04:19:29;16.70;99.90
10095;DHT22;5086;50.830;7.102;2023-07-13T04:21:56;16.70;99.90
10095;DHT22;5086;50.830;7.102;2023-07-13T04:24:23;16.80;99.90
10095;DHT22;5086;50.830;7.102;2023-07-13T04:26:50;16.70;99.90
10095;DHT22;5086;50.830;7.102;2023-07-13T04:29:18;16.70;99.90
10095;DHT22;5086;50.830;7.102;2023-07-13T04:31:46;16.70;99.90
10095;DHT22;5086;50.830;7.102;2023-07-13T04:34:13;16.80;99.90
10095;DHT22;5086;50.830;7.102;2023-07-13T04:36:40;16.80;99.90
10095;DHT22;5086;50.830;7.102;2023-07-13T04:39:07;16.80;99.90
10095;DHT22;5086;50.830;7.102;2023-07-13T04:41:34;16.90;99.90
10095;DHT22;5086;50.830;7.102;2023-07-13T04:44:01;17.00;99.90
10095;DHT22;5086;50.830;7.102;2023-07-13T04:46:31;17.00;99.90
10095;DHT22;5086;50.830;7.102;2023-07-13T04:48:58;17.00;99.90
10095;DHT22;5086;50.830;7.102;2023-07-13T04:51:25;17.00;99.90
10095;DHT22;5086;50.830;7.102;2023-07-13T04:53:52;17.10;99.90
10095;DHT22;5086;50.830;7.102;2023-07-13T04:56:19;17.20;99.90
10095;DHT22;5086;50.830;7.102;2023-07-13T04:58:46;17.30;99.90
10095;DHT22;5086;50.830;7.102;2023-07-13T05:01:13;17.30;99.90
10095;DHT22;5086;50.830;7.102;2023-07-13T05:03:41;17.30;99.90
10095;DHT22;5086;50.830;7.102;2023-07-13T05:06:08;17.40;99.90
10095;DHT22;5086;50.830;7.102;2023-07-13T05:08:36;17.60;99.90
10095;DHT22;5086;50.830;7.102;2023-07-13T05:11:04;17.80;99.90
10095;DHT22;5086;50.830;7.102;2023-07-13T05:13:32;18.10;99.90
10095;DHT22;5086;50.830;7.102;2023-07-13T05:16:01;18.40;99.90
10095;DHT22;5086;50.830;7.102;2023-07-13T05:18:29;18.60;99.90
10095;DHT22;5086;50.830;7.102;2023-07-13T05:21:02;18.80;99.90
10095;DHT22;5086;50.830;7.102;2023-07-13T05:23:31;18.90;99.90
10095;DHT22;5086;50.830;7.102;2023-07-13T05:25:59;19.10;99.90
10095;DHT22;5086;50.830;7.102;2023-07-13T05:28:26;19.20;99.90
10095;DHT22;5086;50.830;7.102;2023-07-13T05:30:53;19.40;99.90
10095;DHT22;5086;50.830;7.102;2023-07-13T05:33:25;19.60;99.90
10095;DHT22;5086;50.830;7.102;2023-07-13T05:35:52;19.80;99.90
10095;DHT22;5086;50.830;7.102;2023-07-13T05:38:21;19.60;99.90
10095;DHT22;5086;50.830;7.102;2023-07-13T05:40:49;19.80;99.90
10095;DHT22;5086;50.830;7.102;2023-07-13T05:43:16;20.00;99.90
10095;DHT22;5086;50.830;7.102;2023-07-13T05:45:43;20.20;99.90
10095;DHT22;5086;50.830;7.102;2023-07-13T05:48:10;20.20;99.90
10095;DHT22;5086;50.830;7.102;2023-07-13T05:50:38;20.10;99.90
10095;DHT22;5086;50.830;7.102;2023-07-13T05:53:05;20.10;99.90
10095;DHT22;5086;50.830;7.102;2023-07-13T05:55:34;20.20;99.90
10095;DHT22;5086;50.830;7.102;2023-07-13T05:58:01;20.20;99.90
10095;DHT22;5086;50.830;7.102;2023-07-13T06:00:28;20.40;99.90
10095;DHT22;5086;50.830;7.102;2023-07-13T06:02:57;20.80;99.90
10095;DHT22;5086;50.830;7.102;2023-07-13T06:05:25;20.90;99.90
10095;DHT22;5086;50.830;7.102;2023-07-13T06:07:54;21.00;99.90
10095;DHT22;5086;50.830;7.102;2023-07-13T06:10:21;21.10;99.90
10095;DHT22;5086;50.830;7.102;2023-07-13T06:12:49;21.00;99.90
10095;DHT22;5086;50.830;7.102;2023-07-13T06:15:17;21.30;99.90
10095;DHT22;5086;50.830;7.102;2023-07-13T06:17:44;21.50;99.90
10095;DHT22;5086;50.830;7.102;2023-07-13T06:20:12;21.60;99.90
10095;DHT22;5086;50.830;7.102;2023-07-13T06:22:40;22.20;99.90
10095;DHT22;5086;50.830;7.102;2023-07-13T06:25:08;22.30;99.90
10095;DHT22;5086;50.830;7.102;2023-07-13T06:27:35;22.20;99.90
10095;DHT22;5086;50.830;7.102;2023-07-13T06:30:04;22.20;99.90
10095;DHT22;5086;50.830;7.102;2023-07-13T06:32:31;21.90;99.90
10095;DHT22;5086;50.830;7.102;2023-07-13T06:34:58;21.70;99.90
10095;DHT22;5086;50.830;7.102;2023-07-13T06:37:27;21.70;99.90
10095;DHT22;5086;50.830;7.102;2023-07-13T06:39:54;21.90;99.90
10095;DHT22;5086;50.830;7.102;2023-07-13T06:42:21;21.90;99.90
10095;DHT22;5086;50.830;7.102;2023-07-13T06:44:51;21.80;99.90
10095;DHT22;5086;50.830;7.102;2023-07-13T06:47:19;22.10;99.90
10095;DHT22;5086;50.830;7.102;2023-07-13T06:49:46;22.50;99.90
10095;DHT22;5086;50.830;7.102;2023-07-13T06:52:16;22.90;99.90
10095;DHT22;5086;50.830;7.102;2023-07-13T06:54:43;23.10;99.90
10095;DHT22;5086;50.830;7.102;2023-07-13T06:57:10;23.60;99.90
10095;DHT22;5086;50.830;7.102;2023-07-13T06:59:37;23.60;99.90
10095;DHT22;5086;50.830;7.102;2023-07-13T07:02:05;23.70;99.90
10095;DHT22;5086;50.830;7.102;2023-07-13T07:04:34;23.50;99.90
10095;DHT22;5086;50.830;7.102;2023-07-13T07:07:04;23.40;99.90
10095;DHT22;5086;50.830;7.102;2023-07-13T07:09:32;23.30;99.90
10095;DHT22;5086;50.830;7.102;2023-07-13T07:11:59;23.50;99.90
10095;DHT22;5086;50.830;7.102;2023-07-13T07:14:26;23.20;99.90
10095;DHT22;5086;50.830;7.102;2023-07-13T07:16:53;23.10;99.90
10095;DHT22;5086;50.830;7.102;2023-07-13T07:19:20;23.20;99.90
10095;DHT22;5086;50.830;7.102;2023-07-13T07:21:50;23.40;99.90
10095;DHT22;5086;50.830;7.102;2023-07-13T07:24:17;23.60;99.90
10095;DHT22;5086;50.830;7.102;2023-07-13T07:26:44;24.00;99.90
10095;DHT22;5086;50.830;7.102;2023-07-13T07:29:13;24.00;99.90
10095;DHT22;5086;50.830;7.102;2023-07-13T07:31:40;24.20;99.90
10095;DHT22;5086;50.830;7.102;2023-07-13T07:34:07;24.40;99.90
10095;DHT22;5086;50.830;7.102;2023-07-13T07:36:34;23.90;99.90
10095;DHT22;5086;50.830;7.102;2023-07-13T07:39:06;23.70;99.90
10095;DHT22;5086;50.830;7.102;2023-07-13T07:41:33;24.20;99.90
10095;DHT22;5086;50.830;7.102;2023-07-13T07:44:00;24.20;99.90
10095;DHT22;5086;50.830;7.102;2023-07-13T07:46:27;24.30;99.90
10095;DHT22;5086;50.830;7.102;2023-07-13T07:48:55;24.60;99.90
10095;DHT22;5086;50.830;7.102;2023-07-13T07:51:22;25.00;99.90
10095;DHT22;5086;50.830;7.102;2023-07-13T07:53:48;25.10;99.90
10095;DHT22;5086;50.830;7.102;2023-07-13T07:56:17;25.30;99.90
10095;DHT22;5086;50.830;7.102;2023-07-13T07:58:44;25.90;99.90
10095;DHT22;5086;50.830;7.102;2023-07-13T08:01:11;26.00;99.90
10095;DHT22;5086;50.830;7.102;2023-07-13T08:03:38;25.90;99.90
10095;DHT22;5086;50.830;7.102;2023-07-13T08:06:05;26.40;99.90
10095;DHT22;5086;50.830;7.102;2023-07-13T08:08:33;26.40;99.90
10095;DHT22;5086;50.830;7.102;2023-07-13T08:11:02;26.20;99.90
10095;DHT22;5086;50.830;7.102;2023-07-13T08:13:31;26.10;99.90
10095;DHT22;5086;50.830;7.102;2023-07-13T08:15:58;25.50;99.90
10095;DHT22;5086;50.830;7.102;2023-07-13T08:18:27;24.80;99.90
10095;DHT22;5086;50.830;7.102;2023-07-13T08:20:55;24.50;99.90
10095;DHT22;5086;50.830;7.102;2023-07-13T08:23:36;23.90;99.90
10095;DHT22;5086;50.830;7.102;2023-07-13T08:26:04;23.50;99.90
10095;DHT22;5086;50.830;7.102;2023-07-13T08:28:36;23.30;99.90
10095;DHT22;5086;50.830;7.102;2023-07-13T08:31:05;23.20;99.90
10095;DHT22;5086;50.830;7.102;2023-07-13T08:33:33;23.70;99.90
10095;DHT22;5086;50.830;7.102;2023-07-13T08:36:01;24.30;99.90
10095;DHT22;5086;50.830;7.102;2023-07-13T08:38:28;24.50;99.90
10095;DHT22;5086;50.830;7.102;2023-07-13T08:40:56;24.60;99.90
10095;DHT22;5086;50.830;7.102;2023-07-13T08:43:27;24.80;99.90
10095;DHT22;5086;50.830;7.102;2023-07-13T08:46:02;24.90;99.90
10095;DHT22;5086;50.830;7.102;2023-07-13T08:48:35;24.80;99.90
10095;DHT22;5086;50.830;7.102;2023-07-13T08:51:17;24.50;99.90
10095;DHT22;5086;50.830;7.102;2023-07-13T08:53:50;24.20;99.90
10095;DHT22;5086;50.830;7.102;2023-07-13T08:56:21;24.20;99.90
10095;DHT22;5086;50.830;7.102;2023-07-13T08:59:10;24.10;99.90
10095;DHT22;5086;50.830;7.102;2023-07-13T09:01:52;24.00;99.90
10095;DHT22;5086;50.830;7.102;2023-07-13T09:04:23;24.20;99.90
10095;DHT22;5086;50.830;7.102;2023-07-13T09:07:00;24.20;99.90
10095;DHT22;5086;50.830;7.102;2023-07-13T09:09:46;24.20;99.90
10095;DHT22;5086;50.830;7.102;2023-07-13T09:12:40;24.10;99.90
10095;DHT22;5086;50.830;7.102;2023-07-13T09:15:21;24.10;99.90
10095;DHT22;5086;50.830;7.102;2023-07-13T09:17:56;24.20;99.90
10095;DHT22;5086;50.830;7.102;2023-07-13T09:20:29;24.20;99.90
10095;DHT22;5086;50.830;7.102;2023-07-13T09:23:00;24.20;99.90
10095;DHT22;5086;50.830;7.102;2023-07-13T09:25:34;24.60;99.90
10095;DHT22;5086;50.830;7.102;2023-07-13T09:28:11;24.70;99.90
10095;DHT22;5086;50.830;7.102;2023-07-13T09:33:44;24.70;99.90
10095;DHT22;5086;50.830;7.102;2023-07-13T09:36:20;24.50;99.90
10095;DHT22;5086;50.830;7.102;2023-07-13T09:38:52;24.30;99.90
10095;DHT22;5086;50.830;7.102;2023-07-13T09:41:28;24.70;99.90
10095;DHT22;5086;50.830;7.102;2023-07-13T09:44:08;24.40;99.90
10095;DHT22;5086;50.830;7.102;2023-07-13T09:46:53;24.50;99.90
10095;DHT22;5086;50.830;7.102;2023-07-13T09:49:26;24.30;99.90
10095;DHT22;5086;50.830;7.102;2023-07-13T09:52:11;24.30;99.90
10095;DHT22;5086;50.830;7.102;2023-07-13T09:54:43;24.50;99.90
10095;DHT22;5086;50.830;7.102;2023-07-13T09:57:13;24.60;99.90
10095;DHT22;5086;50.830;7.102;2023-07-13T10:00:21;24.80;99.90
10095;DHT22;5086;50.830;7.102;2023-07-13T10:02:59;25.30;99.90
10095;DHT22;5086;50.830;7.102;2023-07-13T10:05:39;25.30;99.90
10095;DHT22;5086;50.830;7.102;2023-07-13T10:08:22;25.20;99.90
10095;DHT22;5086;50.830;7.102;2023-07-13T10:10:57;24.70;99.90
10095;DHT22;5086;50.830;7.102;2023-07-13T10:13:32;24.60;99.90
10095;DHT22;5086;50.830;7.102;2023-07-13T10:16:02;24.50;99.90
10095;DHT22;5086;50.830;7.102;2023-07-13T10:18:34;24.40;99.90
10095;DHT22;5086;50.830;7.102;2023-07-13T10:21:27;24.50;99.90
10095;DHT22;5086;50.830;7.102;2023-07-13T10:23:57;24.50;99.90
10095;DHT22;5086;50.830;7.102;2023-07-13T10:26:35;24.50;99.90
10095;DHT22;5086;50.830;7.102;2023-07-13T10:29:45;24.20;99.90
10095;DHT22;5086;50.830;7.102;2023-07-13T10:32:13;24.00;99.90
10095;DHT22;5086;50.830;7.102;2023-07-13T10:34:43;23.90;99.90
10095;DHT22;5086;50.830;7.102;2023-07-13T10:37:17;24.20;99.90
10095;DHT22;5086;50.830;7.102;2023-07-13T10:39:52;24.50;99.90
10095;DHT22;5086;50.830;7.102;2023-07-13T10:42:29;24.40;99.90
10095;DHT22;5086;50.830;7.102;2023-07-13T10:45:23;24.40;99.90
10095;DHT22;5086;50.830;7.102;2023-07-13T10:47:54;24.30;99.90
10095;DHT22;5086;50.830;7.102;2023-07-13T10:50:24;24.30;99.90
10095;DHT22;5086;50.830;7.102;2023-07-13T10:52:53;24.60;99.90
10095;DHT22;5086;50.830;7.102;2023-07-13T10:55:37;24.80;99.90
10095;DHT22;5086;50.830;7.102;2023-07-13T10:58:18;24.60;99.90
10095;DHT22;5086;50.830;7.102;2023-07-13T11:01:00;24.40;99.90
10095;DHT22;5086;50.830;7.102;2023-07-13T11:03:30;24.50;99.90
10095;DHT22;5086;50.830;7.102;2023-07-13T11:06:36;24.80;99.90
10095;DHT22;5086;50.830;7.102;2023-07-13T11:09:31;24.80;99.90
10095;DHT22;5086;50.830;7.102;2023-07-13T11:12:28;24.70;99.90
10095;DHT22;5086;50.830;7.102;2023-07-13T11:15:11;24.50;99.90
10095;DHT22;5086;50.830;7.102;2023-07-13T11:17:54;24.40;99.90
10095;DHT22;5086;50.830;7.102;2023-07-13T11:20:41;24.30;99.90
10095;DHT22;5086;50.830;7.102;2023-07-13T11:23:29;24.10;99.90
10095;DHT22;5086;50.830;7.102;2023-07-13T11:26:00;23.90;99.90
10095;DHT22;5086;50.830;7.102;2023-07-13T11:28:37;23.90;99.90
10095;DHT22;5086;50.830;7.102;2023-07-13T11:31:15;24.20;99.90
10095;DHT22;5086;50.830;7.102;2023-07-13T11:33:52;24.10;99.90
10095;DHT22;5086;50.830;7.102;2023-07-13T11:36:28;24.10;99.90
10095;DHT22;5086;50.830;7.102;2023-07-13T11:39:03;24.00;99.90
10095;DHT22;5086;50.830;7.102;2023-07-13T11:41:35;24.00;99.90
10095;DHT22;5086;50.830;7.102;2023-07-13T11:44:12;24.40;99.90
10095;DHT22;5086;50.830;7.102;2023-07-13T11:46:45;24.30;99.90
10095;DHT22;5086;50.830;7.102;2023-07-13T11:49:17;24.40;99.90
10095;DHT22;5086;50.830;7.102;2023-07-13T11:51:46;24.20;99.90
10095;DHT22;5086;50.830;7.102;2023-07-13T11:54:29;24.20;99.90
10095;DHT22;5086;50.830;7.102;2023-07-13T11:56:59;24.20;99.90
10095;DHT22;5086;50.830;7.102;2023-07-13T11:59:39;24.20;99.90
10095;DHT22;5086;50.830;7.102;2023-07-13T12:02:16;24.10;99.90
10095;DHT22;5086;50.830;7.102;2023-07-13T12:04:56;24.30;99.90
10095;DHT22;5086;50.830;7.102;2023-07-13T12:07:29;24.40;99.90
10095;DHT22;5086;50.830;7.102;2023-07-13T12:10:01;24.10;99.90
10095;DHT22;5086;50.830;7.102;2023-07-13T12:12:33;24.00;99.90
10095;DHT22;5086;50.830;7.102;2023-07-13T12:15:05;23.90;99.90
10095;DHT22;5086;50.830;7.102;2023-07-13T12:17:35;24.00;99.90
10095;DHT22;5086;50.830;7.102;2023-07-13T12:20:18;24.10;99.90
10095;DHT22;5086;50.830;7.102;2023-07-13T12:23:00;24.10;99.90
10095;DHT22;5086;50.830;7.102;2023-07-13T12:25:31;23.90;99.90
10095;DHT22;5086;50.830;7.102;2023-07-13T12:27:59;23.70;99.90
10095;DHT22;5086;50.830;7.102;2023-07-13T12:30:29;23.80;99.90
10095;DHT22;5086;50.830;7.102;2023-07-13T12:33:07;23.80;99.90
10095;DHT22;5086;50.830;7.102;2023-07-13T12:35:46;23.70;99.90
10095;DHT22;5086;50.830;7.102;2023-07-13T12:38:16;23.50;99.90
10095;DHT22;5086;50.830;7.102;2023-07-13T12:40:49;23.40;99.90
10095;DHT22;5086;50.830;7.102;2023-07-13T12:43:20;23.30;99.90
10095;DHT22;5086;50.830;7.102;2023-07-13T12:45:58;23.50;99.90
10095;DHT22;5086;50.830;7.102;2023-07-13T12:48:26;23.60;99.90
10095;DHT22;5086;50.830;7.102;2023-07-13T12:51:01;23.70;99.90
10095;DHT22;5086;50.830;7.102;2023-07-13T12:53:29;24.00;99.90
10095;DHT22;5086;50.830;7.102;2023-07-13T12:55:59;24.30;99.90
10095;DHT22;5086;50.830;7.102;2023-07-13T12:58:32;24.40;99.90
10095;DHT22;5086;50.830;7.102;2023-07-13T13:01:04;24.30;99.90
10095;DHT22;5086;50.830;7.102;2023-07-13T13:03:37;24.40;99.90
10095;DHT22;5086;50.830;7.102;2023-07-13T13:06:21;24.20;99.90
10095;DHT22;5086;50.830;7.102;2023-07-13T13:08:50;24.00;99.90
10095;DHT22;5086;50.830;7.102;2023-07-13T13:11:19;24.10;99.90
10095;DHT22;5086;50.830;7.102;2023-07-13T13:13:47;24.00;99.90
10095;DHT22;5086;50.830;7.102;2023-07-13T13:16:18;24.10;99.90
10095;DHT22;5086;50.830;7.102;2023-07-13T13:18:46;24.20;99.90
10095;DHT22;5086;50.830;7.102;2023-07-13T13:21:15;24.30;99.90
10095;DHT22;5086;50.830;7.102;2023-07-13T13:23:42;24.50;99.90
10095;DHT22;5086;50.830;7.102;2023-07-13T13:26:11;24.50;99.90
10095;DHT22;5086;50.830;7.102;2023-07-13T13:28:38;24.70;99.90
10095;DHT22;5086;50.830;7.102;2023-07-13T13:31:05;24.80;99.90
10095;DHT22;5086;50.830;7.102;2023-07-13T13:33:32;24.90;99.90
10095;DHT22;5086;50.830;7.102;2023-07-13T13:35:59;25.00;99.90
10095;DHT22;5086;50.830;7.102;2023-07-13T13:38:28;25.00;99.90
10095;DHT22;5086;50.830;7.102;2023-07-13T13:40:55;24.90;99.90
10095;DHT22;5086;50.830;7.102;2023-07-13T13:43:23;25.10;99.90
10095;DHT22;5086;50.830;7.102;2023-07-13T13:45:54;25.10;99.90
10095;DHT22;5086;50.830;7.102;2023-07-13T13:48:29;25.20;99.90
10095;DHT22;5086;50.830;7.102;2023-07-13T13:50:58;25.10;99.90
10095;DHT22;5086;50.830;7.102;2023-07-13T13:53:27;25.00;99.90
10095;DHT22;5086;50.830;7.102;2023-07-13T13:55:54;25.10;99.90
10095;DHT22;5086;50.830;7.102;2023-07-13T13:58:21;24.90;99.90
10095;DHT22;5086;50.830;7.102;2023-07-13T14:00:48;24.80;99.90
10095;DHT22;5086;50.830;7.102;2023-07-13T14:03:17;24.80;99.90
10095;DHT22;5086;50.830;7.102;2023-07-13T14:05:46;24.60;99.90
10095;DHT22;5086;50.830;7.102;2023-07-13T14:08:14;24.60;99.90
10095;DHT22;5086;50.830;7.102;2023-07-13T14:10:45;24.60;99.90
10095;DHT22;5086;50.830;7.102;2023-07-13T14:13:16;24.80;99.90
10095;DHT22;5086;50.830;7.102;2023-07-13T14:15:50;24.90;99.90
10095;DHT22;5086;50.830;7.102;2023-07-13T14:18:25;24.80;99.90
10095;DHT22;5086;50.830;7.102;2023-07-13T14:20:54;25.00;99.90
10095;DHT22;5086;50.830;7.102;2023-07-13T14:23:21;25.10;99.90
10095;DHT22;5086;50.830;7.102;2023-07-13T14:26:00;25.30;99.90
10095;DHT22;5086;50.830;7.102;2023-07-13T14:28:28;25.60;99.90
10095;DHT22;5086;50.830;7.102;2023-07-13T14:30:55;25.80;99.90
10095;DHT22;5086;50.830;7.102;2023-07-13T14:33:30;25.70;99.90
10095;DHT22;5086;50.830;7.102;2023-07-13T14:35:57;25.70;99.90
10095;DHT22;5086;50.830;7.102;2023-07-13T14:38:25;25.60;99.90
10095;DHT22;5086;50.830;7.102;2023-07-13T14:40:56;25.40;99.90
10095;DHT22;5086;50.830;7.102;2023-07-13T14:43:25;25.30;99.90
10095;DHT22;5086;50.830;7.102;2023-07-13T14:45:54;25.40;99.90
10095;DHT22;5086;50.830;7.102;2023-07-13T14:48:33;25.50;99.90
10095;DHT22;5086;50.830;7.102;2023-07-13T14:51:01;25.30;99.90
10095;DHT22;5086;50.830;7.102;2023-07-13T14:53:29;25.20;99.90
10095;DHT22;5086;50.830;7.102;2023-07-13T14:56:00;25.10;99.90
10095;DHT22;5086;50.830;7.102;2023-07-13T14:58:27;25.30;99.90
10095;DHT22;5086;50.830;7.102;2023-07-13T15:01:01;25.40;99.90
10095;DHT22;5086;50.830;7.102;2023-07-13T15:03:28;25.60;99.90
10095;DHT22;5086;50.830;7.102;2023-07-13T15:05:55;25.40;99.90
10095;DHT22;5086;50.830;7.102;2023-07-13T15:08:22;25.40;99.90
10095;DHT22;5086;50.830;7.102;2023-07-13T15:10:49;25.40;99.90
10095;DHT22;5086;50.830;7.102;2023-07-13T15:13:20;25.40;99.90
10095;DHT22;5086;50.830;7.102;2023-07-13T15:15:55;25.30;99.90
10095;DHT22;5086;50.830;7.102;2023-07-13T15:18:28;25.20;99.90
10095;DHT22;5086;50.830;7.102;2023-07-13T15:20:55;25.20;99.90
10095;DHT22;5086;50.830;7.102;2023-07-13T15:23:28;25.10;99.90
10095;DHT22;5086;50.830;7.102;2023-07-13T15:25:59;25.00;99.90
10095;DHT22;5086;50.830;7.102;2023-07-13T15:28:28;25.10;99.90
10095;DHT22;5086;50.830;7.102;2023-07-13T15:30:55;25.00;99.90
10095;DHT22;5086;50.830;7.102;2023-07-13T15:33:25;25.00;99.90
10095;DHT22;5086;50.830;7.102;2023-07-13T15:35:54;25.00;99.90
10095;DHT22;5086;50.830;7.102;2023-07-13T15:38:30;24.90;99.90
10095;DHT22;5086;50.830;7.102;2023-07-13T15:40:57;24.90;99.90
10095;DHT22;5086;50.830;7.102;2023-07-13T15:43:32;25.00;99.90
10095;DHT22;5086;50.830;7.102;2023-07-13T15:46:00;24.90;99.90
10095;DHT22;5086;50.830;7.102;2023-07-13T15:48:27;25.00;99.90
10095;DHT22;5086;50.830;7.102;2023-07-13T15:50:55;25.20;99.90
10095;DHT22;5086;50.830;7.102;2023-07-13T15:53:32;25.20;99.90
10095;DHT22;5086;50.830;7.102;2023-07-13T15:56:00;25.00;99.90
10095;DHT22;5086;50.830;7.102;2023-07-13T15:58:30;24.90;99.90
10095;DHT22;5086;50.830;7.102;2023-07-13T16:00:57;24.70;99.90
10095;DHT22;5086;50.830;7.102;2023-07-13T16:03:24;24.80;99.90
10095;DHT22;5086;50.830;7.102;2023-07-13T16:05:51;24.80;99.90
10095;DHT22;5086;50.830;7.102;2023-07-13T16:08:24;24.70;99.90